Flight Track Log - Related Links

Times and Time Zones

All times are in EDT time to prevent confusion due to time zone crossing. See the SKW4559 flight status page for this flight to view local times or setup timezone preferences in your user account.

Time Position Orientation Groundspeed Altitude Reporting Facility
EDT Latitude Longitude Course Direction KTS MPH feet Rate Location/Type
Mon 12:38:25 PM 49.9000 -97.2333 316° Northwest 320 368 900  Level Winnipeg Center
Mon 12:39:25 PM 49.9333 -97.2833 308° West 180 207 2,700 2,400 Climbing Winnipeg Center
Mon 12:40:25 PM 49.9667 -97.3500 203° Southwest 210 242 5,700 2,750 Climbing Winnipeg Center
Mon 12:41:25 PM 49.9167 -97.3833 128° Southeast 240 276 8,200 2,500 Climbing Winnipeg Center
Mon 12:42:25 PM 49.8667 -97.2833 111° Southeast 300 345 10,700 2,300 Climbing Winnipeg Center
Mon 12:43:25 PM 49.8333 -97.1500 141° Southeast 320 368 12,800 2,000 Climbing Winnipeg Center
Mon 12:44:25 PM 49.7667 -97.0667 153° Southeast 320 368 14,700 2,000 Climbing Winnipeg Center
Mon 12:45:25 PM 49.6833 -97.0000 147° Southeast 330 380 16,800 1,900 Climbing Winnipeg Center
Mon 12:46:25 PM 49.6000 -96.9167 147° Southeast 340 391 18,500 1,600 Climbing Winnipeg Center
Mon 12:47:25 PM 49.5167 -96.8333 153° Southeast 350 403 20,000 1,600 Climbing Winnipeg Center
Mon 12:48:25 PM 49.4333 -96.7667 147° Southeast 360 414 21,700 1,650 Climbing Winnipeg Center
Mon 12:49:25 PM 49.3500 -96.6833 147° Southeast 360 414 23,300 1,450 Climbing Winnipeg Center
Mon 12:50:25 PM 49.2667 -96.6000 152° Southeast 360 414 24,600 1,300 Climbing Winnipeg Center
Mon 12:51:25 PM 49.1833 -96.5333 142° Southeast 360 414 25,900 1,150 Climbing Winnipeg Center
Mon 12:52:25 PM 49.1000 -96.4333 151° Southeast 360 414 26,900 850 Climbing Winnipeg Center
Mon 12:53:25 PM 49.0000 -96.3500 156° South 370 426 27,600 700 Climbing Winnipeg Center
Mon 12:54:25 PM 48.9000 -96.2833 142° Southeast 380 437 28,300 750 Climbing Winnipeg Center
Mon 12:55:25 PM 48.8167 -96.1833 151° Southeast 380 437 29,100 850 Climbing Winnipeg Center
Mon 12:56:25 PM 48.7167 -96.1000 152° Southeast 380 437 30,000 850 Climbing Winnipeg Center
Mon 12:57:25 PM 48.6333 -96.0333 142° Southeast 380 437 30,800 650 Climbing Winnipeg Center
Mon 12:58:25 PM 48.5500 -95.9333 151° Southeast 380 437 31,300 550 Climbing Winnipeg Center
Mon 12:59:25 PM 48.4500 -95.8500 152° Southeast 380 437 31,900 550 Climbing Winnipeg Center
Mon 01:00:25 PM 48.3667 -95.7833 146° Southeast 380 437 32,400 550 Climbing Winnipeg Center
Mon 01:01:25 PM 48.2667 -95.6833 152° Southeast 380 437 33,000 300 Climbing Winnipeg Center
Mon 01:02:25 PM 48.1833 -95.6167 146° Southeast 370 426 33,000  Level Winnipeg Center
Mon 01:03:25 PM 48.1000 -95.5333 151° Southeast 380 437 33,000  Level Winnipeg Center
Mon 01:04:25 PM 48.0000 -95.4500 146° Southeast 390 449 33,000  Level Winnipeg Center
Mon 01:05:25 PM 47.9167 -95.3667 141° Southeast 390 449 33,000  Level Winnipeg Center
Mon 01:06:25 PM 47.8333 -95.2667 156° South 390 449 33,000  Level Winnipeg Center
Mon 01:07:25 PM 47.7333 -95.2000 156° South 380 437 33,000  Level Winnipeg Center
Mon 01:08:25 PM 47.6333 -95.1333 145° Southeast 380 437 33,000  Level Winnipeg Center
Mon 01:09:31 PM 47.5608 -95.0569 150° Southeast 388 447 33,000  Level Minneapolis Center
Mon 01:10:31 PM 47.4681 -94.9772 150° Southeast 388 447 33,000  Level Minneapolis Center
Mon 01:11:31 PM 47.3756 -94.8981 149° Southeast 388 447 33,000  Level Minneapolis Center
Mon 01:12:31 PM 47.2847 -94.8192 153° Southeast 383 441 33,000  Level Minneapolis Center
Mon 01:13:31 PM 47.1878 -94.7464 156° South 383 441 33,000  Level Minneapolis Center
Mon 01:14:31 PM 47.0864 -94.6797 156° South 388 447 33,000  Level Minneapolis Center
Mon 01:15:31 PM 46.9850 -94.6136 155° Southeast 398 458 33,000  Level Minneapolis Center
Mon 01:16:30 PM 46.8878 -94.5475 156° South 398 458 33,000  Level Minneapolis Center
Mon 01:17:30 PM 46.7864 -94.4819 155° Southeast 398 458 33,000  Level Minneapolis Center
Mon 01:18:30 PM 46.6892 -94.4164 155° Southeast 398 458 33,000  Level Minneapolis Center
Mon 01:19:31 PM 46.5897 -94.3483 156° South 393 452 33,000  Level Minneapolis Center
Mon 01:20:30 PM 46.4861 -94.2803 154° Southeast 399 459 33,000  Level Minneapolis Center
Mon 01:21:31 PM 46.3886 -94.2125 152° Southeast 399 459 33,000  Level Minneapolis Center
Mon 01:22:30 PM 46.2892 -94.1358 153° Southeast 399 459 33,000  Level Minneapolis Center
Mon 01:23:31 PM 46.1833 -94.0567 150° Southeast 399 459 33,000  Level Minneapolis Center
Mon 01:24:31 PM 46.0858 -93.9747 149° Southeast 399 459 33,000  Level Minneapolis Center
Mon 01:25:30 PM 45.9864 -93.8900 150° Southeast 412 474 33,000  Level Minneapolis Center
Mon 01:26:30 PM 45.8886 -93.8089 149° Southeast 412 474 33,000 -576 Level Minneapolis Center
Mon 01:27:35 PM 45.7886 -93.7242 155° Southeast 398 458 31,800 -2,171 Descending FAA TRACON SMA TRACON (SMA)
Mon 01:28:15 PM 45.7194 -93.6772 160° South 396 456 29,200 -3,512 Descending FAA TRACON SMA TRACON (SMA)
Mon 01:28:57 PM 45.6558 -93.6450 160° South 393 452 27,000 -3,407 Descending FAA TRACON SMA TRACON (SMA)
Mon 01:29:36 PM 45.5844 -93.6075 159° South 395 455 24,600 -3,646 Descending FAA TRACON SMA TRACON (SMA)
Mon 01:30:16 PM 45.5128 -93.5686 160° South 401 461 22,200 -3,375 Descending FAA TRACON SMA TRACON (SMA)
Mon 01:30:56 PM 45.4481 -93.5347 159° South 401 461 20,100 -3,675 Descending FAA TRACON SMA TRACON (SMA)
Mon 01:31:36 PM 45.3761 -93.4953 160° South 399 459 17,300 -3,900 Descending FAA TRACON SMA TRACON (SMA)
Mon 01:32:16 PM 45.3058 -93.4589 160° South 386 444 14,900 -3,450 Descending FAA TRACON SMA TRACON (SMA)
Mon 01:32:56 PM 45.2456 -93.4269 160° South 374 430 12,700 -2,925 Descending FAA TRACON SMA TRACON (SMA)
Mon 01:33:36 PM 45.1806 -93.3928 160° South 357 411 11,000 -1,333 Descending FAA TRACON SMA TRACON (SMA)
Mon 01:34:17 PM 45.1250 -93.3636 159° South 299 344 10,900  Descending FAA TRACON SMA TRACON (SMA)
Mon 01:34:57 PM 45.0797 -93.3389 159° South 283 326 11,000 76 Climbing FAA TRACON SMA TRACON (SMA)
Mon 01:35:36 PM 45.0278 -93.3114 167° South 286 329 11,000 -304 Level FAA TRACON SMA TRACON (SMA)
Mon 01:36:16 PM 44.9775 -93.2953 169° South 263 303 10,600 -750 Descending FAA TRACON SMA TRACON (SMA)
Mon 01:36:56 PM 44.9358 -93.2842 175° South 246 283 10,000 -911 Descending FAA TRACON SMA TRACON (SMA)
Mon 01:37:35 PM 44.8817 -93.2778 159° South 307 353 9,400 -759 Descending FAA TRACON SMA TRACON (SMA)
Mon 01:38:15 PM 44.8328 -93.2517 158° South 256 295 9,000 -300 Descending FAA TRACON SMA TRACON (SMA)
Mon 01:38:55 PM 44.7894 -93.2264 128° Southeast 255 293 9,000  Level FAA TRACON SMA TRACON (SMA)
Mon 01:39:35 PM 44.7628 -93.1778 127° Southeast 255 293 9,000  Level FAA TRACON SMA TRACON (SMA)
Mon 01:40:16 PM 44.7342 -93.1236 125° Southeast 247 284 9,000 -525 Level FAA TRACON SMA TRACON (SMA)
Mon 01:40:55 PM 44.7069 -93.0697 125° Southeast 243 280 8,300 -1,215 Descending FAA TRACON SMA TRACON (SMA)
Mon 01:41:35 PM 44.6825 -93.0211 98° East 247 284 7,400 -1,556 Descending FAA TRACON SMA TRACON (SMA)
Mon 01:42:16 PM 44.6761 -92.9600 14° North 258 297 6,200 -1,650 Descending FAA TRACON SMA TRACON (SMA)
Mon 01:42:55 PM 44.7161 -92.9464 333° Northwest 245 282 5,200 -1,443 Descending FAA TRACON SMA TRACON (SMA)
Mon 01:43:35 PM 44.7497 -92.9703 327° Northwest 219 252 4,300 -975 Descending FAA TRACON SMA TRACON (SMA)
Mon 01:44:15 PM 44.7828 -93.0006 306° West 202 232 3,900 -667 Descending FAA TRACON SMA TRACON (SMA)
Mon 01:44:56 PM 44.8033 -93.0406 301° West 182 209 3,400 -889 Descending FAA TRACON SMA TRACON (SMA)
Mon 01:45:36 PM 44.8222 -93.0842 302° West 188 216 2,700 -911 Descending FAA TRACON SMA TRACON (SMA)
Mon 01:46:15 PM 44.8389 -93.1222 302° West 185 213 2,200 -911 Descending FAA TRACON SMA TRACON (SMA)
Mon 01:46:55 PM 44.8547 -93.1581 302° West 149 171 1,500 -815 Descending FAA TRACON SMA TRACON (SMA)
Mon 01:47:36 PM 44.8669 -93.1861 302° West 137 158 1,100 -585 Descending FAA TRACON SMA TRACON (SMA)

Login

Don't have an account? Register now (free) for customized features, flight alerts, and more!